sensor_id;sensor_type;location;lat;lon;timestamp;temperature;humidity
51557;DHT22;38766;53.194;5.532;2023-01-28T00:02:06;4.40;99.90
51557;DHT22;38766;53.194;5.532;2023-01-28T00:04:31;4.40;99.90
51557;DHT22;38766;53.194;5.532;2023-01-28T00:06:57;4.30;99.90
51557;DHT22;38766;53.194;5.532;2023-01-28T00:09:23;4.30;99.90
51557;DHT22;38766;53.194;5.532;2023-01-28T00:11:48;4.40;99.90
51557;DHT22;38766;53.194;5.532;2023-01-28T00:14:14;4.40;99.90
51557;DHT22;38766;53.194;5.532;2023-01-28T00:16:40;4.40;99.90
51557;DHT22;38766;53.194;5.532;2023-01-28T00:19:05;4.40;99.90
51557;DHT22;38766;53.194;5.532;2023-01-28T00:21:31;4.40;99.90
51557;DHT22;38766;53.194;5.532;2023-01-28T00:23:57;4.40;99.90
51557;DHT22;38766;53.194;5.532;2023-01-28T00:26:23;4.40;99.90
51557;DHT22;38766;53.194;5.532;2023-01-28T00:28:49;4.40;99.90
51557;DHT22;38766;53.194;5.532;2023-01-28T00:31:24;4.40;99.90
51557;DHT22;38766;53.194;5.532;2023-01-28T00:33:50;4.40;99.90
51557;DHT22;38766;53.194;5.532;2023-01-28T00:36:17;4.40;99.90
51557;DHT22;38766;53.194;5.532;2023-01-28T00:38:47;4.40;99.90
51557;DHT22;38766;53.194;5.532;2023-01-28T00:41:15;4.40;99.90
51557;DHT22;38766;53.194;5.532;2023-01-28T00:43:41;4.30;99.90
51557;DHT22;38766;53.194;5.532;2023-01-28T00:46:08;4.30;99.90
51557;DHT22;38766;53.194;5.532;2023-01-28T00:48:36;4.30;99.90
51557;DHT22;38766;53.194;5.532;2023-01-28T00:51:02;4.30;99.90
51557;DHT22;38766;53.194;5.532;2023-01-28T00:53:29;4.30;99.90
51557;DHT22;38766;53.194;5.532;2023-01-28T00:56:05;4.30;99.90
51557;DHT22;38766;53.194;5.532;2023-01-28T00:58:32;4.30;99.90
51557;DHT22;38766;53.194;5.532;2023-01-28T01:01:17;4.30;99.90
51557;DHT22;38766;53.194;5.532;2023-01-28T01:03:43;4.30;99.90
51557;DHT22;38766;53.194;5.532;2023-01-28T01:06:11;4.30;99.90
51557;DHT22;38766;53.194;5.532;2023-01-28T01:08:36;4.30;99.90
51557;DHT22;38766;53.194;5.532;2023-01-28T01:11:08;4.20;99.90
51557;DHT22;38766;53.194;5.532;2023-01-28T01:13:35;4.30;99.90
51557;DHT22;38766;53.194;5.532;2023-01-28T01:16:28;4.30;99.90
51557;DHT22;38766;53.194;5.532;2023-01-28T01:18:55;4.30;99.90
51557;DHT22;38766;53.194;5.532;2023-01-28T01:21:23;4.30;99.90
51557;DHT22;38766;53.194;5.532;2023-01-28T01:23:51;4.30;99.90
51557;DHT22;38766;53.194;5.532;2023-01-28T01:26:17;4.30;99.90
51557;DHT22;38766;53.194;5.532;2023-01-28T01:28:43;4.30;99.90
51557;DHT22;38766;53.194;5.532;2023-01-28T01:31:19;4.30;99.90
51557;DHT22;38766;53.194;5.532;2023-01-28T01:33:47;4.30;99.90
51557;DHT22;38766;53.194;5.532;2023-01-28T01:36:15;4.30;99.90
51557;DHT22;38766;53.194;5.532;2023-01-28T01:38:42;4.30;99.90
51557;DHT22;38766;53.194;5.532;2023-01-28T01:41:08;4.30;99.90
51557;DHT22;38766;53.194;5.532;2023-01-28T01:43:54;4.30;99.90
51557;DHT22;38766;53.194;5.532;2023-01-28T01:46:42;4.30;99.90
51557;DHT22;38766;53.194;5.532;2023-01-28T01:51:39;4.30;99.90
51557;DHT22;38766;53.194;5.532;2023-01-28T01:54:05;4.30;99.90
51557;DHT22;38766;53.194;5.532;2023-01-28T01:56:36;4.30;99.90
51557;DHT22;38766;53.194;5.532;2023-01-28T01:59:04;4.30;99.90
51557;DHT22;38766;53.194;5.532;2023-01-28T02:01:32;4.30;99.90
51557;DHT22;38766;53.194;5.532;2023-01-28T02:06:27;4.30;99.90
51557;DHT22;38766;53.194;5.532;2023-01-28T02:08:55;4.30;99.90
51557;DHT22;38766;53.194;5.532;2023-01-28T02:11:23;4.20;99.90
51557;DHT22;38766;53.194;5.532;2023-01-28T02:13:53;4.20;99.90
51557;DHT22;38766;53.194;5.532;2023-01-28T02:16:20;4.20;99.90
51557;DHT22;38766;53.194;5.532;2023-01-28T02:18:46;4.20;99.90
51557;DHT22;38766;53.194;5.532;2023-01-28T02:27:01;4.10;99.90
51557;DHT22;38766;53.194;5.532;2023-01-28T02:29:37;4.00;99.90
51557;DHT22;38766;53.194;5.532;2023-01-28T02:32:14;4.00;99.90
51557;DHT22;38766;53.194;5.532;2023-01-28T02:34:51;4.00;99.90
51557;DHT22;38766;53.194;5.532;2023-01-28T02:37:49;4.00;99.90
51557;DHT22;38766;53.194;5.532;2023-01-28T02:40:23;3.90;99.90
51557;DHT22;38766;53.194;5.532;2023-01-28T02:42:49;3.90;99.90
51557;DHT22;38766;53.194;5.532;2023-01-28T02:45:20;4.00;99.90
51557;DHT22;38766;53.194;5.532;2023-01-28T02:47:46;3.90;99.90
51557;DHT22;38766;53.194;5.532;2023-01-28T02:50:54;3.90;99.90
51557;DHT22;38766;53.194;5.532;2023-01-28T02:53:38;3.90;99.90
51557;DHT22;38766;53.194;5.532;2023-01-28T02:58:46;3.80;99.90
51557;DHT22;38766;53.194;5.532;2023-01-28T03:01:23;3.80;99.90
51557;DHT22;38766;53.194;5.532;2023-01-28T03:04:09;3.70;99.90
51557;DHT22;38766;53.194;5.532;2023-01-28T03:06:48;3.70;99.90
51557;DHT22;38766;53.194;5.532;2023-01-28T03:09:14;3.70;99.90
51557;DHT22;38766;53.194;5.532;2023-01-28T03:14:37;3.70;99.90
51557;DHT22;38766;53.194;5.532;2023-01-28T03:17:36;3.70;99.90
51557;DHT22;38766;53.194;5.532;2023-01-28T03:20:25;3.60;99.90
51557;DHT22;38766;53.194;5.532;2023-01-28T03:23:13;3.70;99.90
51557;DHT22;38766;53.194;5.532;2023-01-28T03:26:00;3.60;99.90
51557;DHT22;38766;53.194;5.532;2023-01-28T03:28:48;3.60;99.90
51557;DHT22;38766;53.194;5.532;2023-01-28T03:31:33;3.60;99.90
51557;DHT22;38766;53.194;5.532;2023-01-28T03:34:19;3.60;99.90
51557;DHT22;38766;53.194;5.532;2023-01-28T03:37:04;3.60;99.90
51557;DHT22;38766;53.194;5.532;2023-01-28T03:39:30;3.60;99.90
51557;DHT22;38766;53.194;5.532;2023-01-28T03:42:01;3.60;99.90
51557;DHT22;38766;53.194;5.532;2023-01-28T03:44:27;3.50;99.90
51557;DHT22;38766;53.194;5.532;2023-01-28T03:47:12;3.60;99.90
51557;DHT22;38766;53.194;5.532;2023-01-28T03:49:42;3.50;99.90
51557;DHT22;38766;53.194;5.532;2023-01-28T03:52:11;3.50;99.90
51557;DHT22;38766;53.194;5.532;2023-01-28T03:54:37;3.50;99.90
51557;DHT22;38766;53.194;5.532;2023-01-28T03:57:05;3.40;99.90
51557;DHT22;38766;53.194;5.532;2023-01-28T03:59:32;3.40;99.90
51557;DHT22;38766;53.194;5.532;2023-01-28T04:01:57;3.50;99.90
51557;DHT22;38766;53.194;5.532;2023-01-28T04:04:23;3.40;99.90
51557;DHT22;38766;53.194;5.532;2023-01-28T04:06:50;3.40;99.90
51557;DHT22;38766;53.194;5.532;2023-01-28T04:09:16;3.40;99.90
51557;DHT22;38766;53.194;5.532;2023-01-28T04:11:41;3.40;99.90
51557;DHT22;38766;53.194;5.532;2023-01-28T04:14:07;3.40;99.90
51557;DHT22;38766;53.194;5.532;2023-01-28T04:16:33;3.40;99.90
51557;DHT22;38766;53.194;5.532;2023-01-28T04:18:58;3.40;99.90
51557;DHT22;38766;53.194;5.532;2023-01-28T04:21:24;3.40;99.90
51557;DHT22;38766;53.194;5.532;2023-01-28T04:23:50;3.40;99.90
51557;DHT22;38766;53.194;5.532;2023-01-28T04:26:15;3.40;99.90
51557;DHT22;38766;53.194;5.532;2023-01-28T04:28:41;3.40;99.90
51557;DHT22;38766;53.194;5.532;2023-01-28T04:31:07;3.40;99.90
51557;DHT22;38766;53.194;5.532;2023-01-28T04:33:32;3.30;99.90
51557;DHT22;38766;53.194;5.532;2023-01-28T04:35:58;3.30;99.90
51557;DHT22;38766;53.194;5.532;2023-01-28T04:38:23;3.20;99.90
51557;DHT22;38766;53.194;5.532;2023-01-28T04:40:53;3.20;99.90
51557;DHT22;38766;53.194;5.532;2023-01-28T04:43:19;3.20;99.90
51557;DHT22;38766;53.194;5.532;2023-01-28T04:45:47;3.30;99.90
51557;DHT22;38766;53.194;5.532;2023-01-28T04:48:14;3.20;99.90
51557;DHT22;38766;53.194;5.532;2023-01-28T04:50:41;3.20;99.90
51557;DHT22;38766;53.194;5.532;2023-01-28T04:53:07;3.20;99.90
51557;DHT22;38766;53.194;5.532;2023-01-28T04:55:33;3.20;99.90
51557;DHT22;38766;53.194;5.532;2023-01-28T04:57:58;3.10;99.90
51557;DHT22;38766;53.194;5.532;2023-01-28T05:00:24;3.20;99.90
51557;DHT22;38766;53.194;5.532;2023-01-28T05:02:50;3.20;99.90
51557;DHT22;38766;53.194;5.532;2023-01-28T05:05:15;3.20;99.90
51557;DHT22;38766;53.194;5.532;2023-01-28T05:07:41;3.20;99.90
51557;DHT22;38766;53.194;5.532;2023-01-28T05:10:07;3.20;99.90
51557;DHT22;38766;53.194;5.532;2023-01-28T05:12:33;3.20;99.90
51557;DHT22;38766;53.194;5.532;2023-01-28T05:14:59;3.20;99.90
51557;DHT22;38766;53.194;5.532;2023-01-28T05:17:26;3.20;99.90
51557;DHT22;38766;53.194;5.532;2023-01-28T05:19:52;3.30;99.90
51557;DHT22;38766;53.194;5.532;2023-01-28T05:22:17;3.30;99.90
51557;DHT22;38766;53.194;5.532;2023-01-28T05:24:43;3.30;99.90
51557;DHT22;38766;53.194;5.532;2023-01-28T05:27:09;3.20;99.90
51557;DHT22;38766;53.194;5.532;2023-01-28T05:29:34;3.20;99.90
51557;DHT22;38766;53.194;5.532;2023-01-28T05:32:00;3.10;99.90
51557;DHT22;38766;53.194;5.532;2023-01-28T05:34:25;3.10;99.90
51557;DHT22;38766;53.194;5.532;2023-01-28T05:36:51;3.10;99.90
51557;DHT22;38766;53.194;5.532;2023-01-28T05:39:16;3.10;99.90
51557;DHT22;38766;53.194;5.532;2023-01-28T05:41:42;3.10;99.90
51557;DHT22;38766;53.194;5.532;2023-01-28T05:44:08;3.10;99.90
51557;DHT22;38766;53.194;5.532;2023-01-28T05:46:33;3.10;99.90
51557;DHT22;38766;53.194;5.532;2023-01-28T05:48:59;3.10;99.90
51557;DHT22;38766;53.194;5.532;2023-01-28T05:51:24;3.10;99.90
51557;DHT22;38766;53.194;5.532;2023-01-28T05:53:50;3.10;99.90
51557;DHT22;38766;53.194;5.532;2023-01-28T05:56:16;3.10;99.90
51557;DHT22;38766;53.194;5.532;2023-01-28T05:58:44;3.10;99.90
51557;DHT22;38766;53.194;5.532;2023-01-28T06:01:10;3.10;99.90
51557;DHT22;38766;53.194;5.532;2023-01-28T06:03:38;3.00;99.90
51557;DHT22;38766;53.194;5.532;2023-01-28T06:06:04;3.10;99.90
51557;DHT22;38766;53.194;5.532;2023-01-28T06:08:29;3.00;99.90
51557;DHT22;38766;53.194;5.532;2023-01-28T06:10:55;3.00;99.90
51557;DHT22;38766;53.194;5.532;2023-01-28T06:13:21;2.90;99.90
51557;DHT22;38766;53.194;5.532;2023-01-28T06:15:48;3.00;99.90
51557;DHT22;38766;53.194;5.532;2023-01-28T06:18:17;2.90;99.90
51557;DHT22;38766;53.194;5.532;2023-01-28T06:20:43;3.00;99.90
51557;DHT22;38766;53.194;5.532;2023-01-28T06:23:09;2.80;99.90
51557;DHT22;38766;53.194;5.532;2023-01-28T06:25:34;2.80;99.90
51557;DHT22;38766;53.194;5.532;2023-01-28T06:28:00;2.80;99.90
51557;DHT22;38766;53.194;5.532;2023-01-28T06:30:25;2.80;99.90
51557;DHT22;38766;53.194;5.532;2023-01-28T06:32:55;2.70;99.90
51557;DHT22;38766;53.194;5.532;2023-01-28T06:35:21;2.80;99.90
51557;DHT22;38766;53.194;5.532;2023-01-28T06:37:47;2.70;99.90
51557;DHT22;38766;53.194;5.532;2023-01-28T06:40:12;2.70;99.90
51557;DHT22;38766;53.194;5.532;2023-01-28T06:42:38;2.70;99.90
51557;DHT22;38766;53.194;5.532;2023-01-28T06:45:04;2.60;99.90
51557;DHT22;38766;53.194;5.532;2023-01-28T06:47:29;2.60;99.90
51557;DHT22;38766;53.194;5.532;2023-01-28T06:49:55;2.60;99.90
51557;DHT22;38766;53.194;5.532;2023-01-28T06:52:21;2.60;99.90
51557;DHT22;38766;53.194;5.532;2023-01-28T06:54:46;2.60;99.90
51557;DHT22;38766;53.194;5.532;2023-01-28T06:57:12;2.60;99.90
51557;DHT22;38766;53.194;5.532;2023-01-28T06:59:38;2.60;99.90
51557;DHT22;38766;53.194;5.532;2023-01-28T07:02:03;2.60;99.90
51557;DHT22;38766;53.194;5.532;2023-01-28T07:04:29;2.60;99.90
51557;DHT22;38766;53.194;5.532;2023-01-28T07:06:55;2.50;99.90
51557;DHT22;38766;53.194;5.532;2023-01-28T07:09:21;2.50;99.90
51557;DHT22;38766;53.194;5.532;2023-01-28T07:11:46;2.40;99.90
51557;DHT22;38766;53.194;5.532;2023-01-28T07:14:12;2.40;99.90
51557;DHT22;38766;53.194;5.532;2023-01-28T07:16:37;2.30;99.90
51557;DHT22;38766;53.194;5.532;2023-01-28T07:19:03;2.30;99.90
51557;DHT22;38766;53.194;5.532;2023-01-28T07:21:29;2.20;99.90
51557;DHT22;38766;53.194;5.532;2023-01-28T07:23:54;2.20;99.90
51557;DHT22;38766;53.194;5.532;2023-01-28T07:26:20;2.20;99.90
51557;DHT22;38766;53.194;5.532;2023-01-28T07:28:46;2.20;99.90
51557;DHT22;38766;53.194;5.532;2023-01-28T07:31:11;2.20;99.90
51557;DHT22;38766;53.194;5.532;2023-01-28T07:33:37;2.20;99.90
51557;DHT22;38766;53.194;5.532;2023-01-28T07:36:03;2.20;99.90
51557;DHT22;38766;53.194;5.532;2023-01-28T07:38:31;2.20;99.90
51557;DHT22;38766;53.194;5.532;2023-01-28T07:40:57;2.20;99.90
51557;DHT22;38766;53.194;5.532;2023-01-28T07:43:22;2.20;99.90
51557;DHT22;38766;53.194;5.532;2023-01-28T07:45:48;2.20;99.90
51557;DHT22;38766;53.194;5.532;2023-01-28T07:48:14;2.20;99.90
51557;DHT22;38766;53.194;5.532;2023-01-28T07:50:39;2.20;99.90
51557;DHT22;38766;53.194;5.532;2023-01-28T07:53:07;2.10;99.90
51557;DHT22;38766;53.194;5.532;2023-01-28T07:55:33;2.10;99.90
51557;DHT22;38766;53.194;5.532;2023-01-28T07:58:05;2.00;99.90
51557;DHT22;38766;53.194;5.532;2023-01-28T08:00:33;2.10;99.90
51557;DHT22;38766;53.194;5.532;2023-01-28T08:03:04;2.00;99.90
51557;DHT22;38766;53.194;5.532;2023-01-28T08:05:44;2.00;99.90
51557;DHT22;38766;53.194;5.532;2023-01-28T08:08:10;2.00;99.90
51557;DHT22;38766;53.194;5.532;2023-01-28T08:10:37;2.10;99.90
51557;DHT22;38766;53.194;5.532;2023-01-28T08:13:03;2.00;99.90
51557;DHT22;38766;53.194;5.532;2023-01-28T08:15:29;2.10;99.90
51557;DHT22;38766;53.194;5.532;2023-01-28T08:17:57;2.10;99.90
51557;DHT22;38766;53.194;5.532;2023-01-28T08:20:24;2.10;99.90
51557;DHT22;38766;53.194;5.532;2023-01-28T08:22:49;2.10;99.90
51557;DHT22;38766;53.194;5.532;2023-01-28T08:25:15;2.20;99.90
51557;DHT22;38766;53.194;5.532;2023-01-28T08:27:41;2.20;99.90
51557;DHT22;38766;53.194;5.532;2023-01-28T08:30:07;2.20;99.90
51557;DHT22;38766;53.194;5.532;2023-01-28T08:32:35;2.20;99.90
51557;DHT22;38766;53.194;5.532;2023-01-28T08:35:01;2.20;99.90
51557;DHT22;38766;53.194;5.532;2023-01-28T08:37:46;2.20;99.90
51557;DHT22;38766;53.194;5.532;2023-01-28T08:40:12;2.20;99.90
51557;DHT22;38766;53.194;5.532;2023-01-28T08:42:38;2.20;99.90
51557;DHT22;38766;53.194;5.532;2023-01-28T08:45:04;2.20;99.90
51557;DHT22;38766;53.194;5.532;2023-01-28T08:47:29;2.30;99.90
51557;DHT22;38766;53.194;5.532;2023-01-28T08:49:55;2.30;99.90
51557;DHT22;38766;53.194;5.532;2023-01-28T08:52:21;2.30;99.90
51557;DHT22;38766;53.194;5.532;2023-01-28T08:54:46;2.30;99.90
51557;DHT22;38766;53.194;5.532;2023-01-28T08:57:12;2.40;99.90
51557;DHT22;38766;53.194;5.532;2023-01-28T08:59:38;2.40;99.90
51557;DHT22;38766;53.194;5.532;2023-01-28T09:02:12;2.50;99.90
51557;DHT22;38766;53.194;5.532;2023-01-28T09:04:38;2.50;99.90
51557;DHT22;38766;53.194;5.532;2023-01-28T09:07:03;2.50;99.90
51557;DHT22;38766;53.194;5.532;2023-01-28T09:09:29;2.60;99.90
51557;DHT22;38766;53.194;5.532;2023-01-28T09:11:55;2.60;99.90
51557;DHT22;38766;53.194;5.532;2023-01-28T09:14:21;2.70;99.90
51557;DHT22;38766;53.194;5.532;2023-01-28T09:16:50;2.70;99.90
51557;DHT22;38766;53.194;5.532;2023-01-28T09:19:15;2.80;99.90
51557;DHT22;38766;53.194;5.532;2023-01-28T09:21:41;2.80;99.90
51557;DHT22;38766;53.194;5.532;2023-01-28T09:24:09;2.80;99.90
51557;DHT22;38766;53.194;5.532;2023-01-28T09:26:36;2.90;99.90
51557;DHT22;38766;53.194;5.532;2023-01-28T09:29:02;2.90;99.90
51557;DHT22;38766;53.194;5.532;2023-01-28T09:31:28;3.00;99.90
51557;DHT22;38766;53.194;5.532;2023-01-28T09:33:54;3.10;99.90
51557;DHT22;38766;53.194;5.532;2023-01-28T09:36:22;3.10;99.90
51557;DHT22;38766;53.194;5.532;2023-01-28T09:38:48;3.20;99.90
51557;DHT22;38766;53.194;5.532;2023-01-28T09:41:27;3.30;99.90
51557;DHT22;38766;53.194;5.532;2023-01-28T09:46:51;3.40;99.90
51557;DHT22;38766;53.194;5.532;2023-01-28T09:49:36;3.40;99.90
51557;DHT22;38766;53.194;5.532;2023-01-28T09:52:02;3.50;99.90
51557;DHT22;38766;53.194;5.532;2023-01-28T09:54:50;3.50;99.90
51557;DHT22;38766;53.194;5.532;2023-01-28T09:57:35;3.60;99.90
51557;DHT22;38766;53.194;5.532;2023-01-28T10:00:02;3.60;99.90
51557;DHT22;38766;53.194;5.532;2023-01-28T10:08:49;4.20;99.90
51557;DHT22;38766;53.194;5.532;2023-01-28T10:20:36;5.00;99.90
51557;DHT22;38766;53.194;5.532;2023-01-28T10:22:47;5.00;99.90
51557;DHT22;38766;53.194;5.532;2023-01-28T10:25:23;5.10;99.90
51557;DHT22;38766;53.194;5.532;2023-01-28T10:27:50;5.20;99.90
51557;DHT22;38766;53.194;5.532;2023-01-28T10:30:22;5.30;99.90
51557;DHT22;38766;53.194;5.532;2023-01-28T10:32:55;5.40;99.90
51557;DHT22;38766;53.194;5.532;2023-01-28T10:35:24;5.50;99.90
51557;DHT22;38766;53.194;5.532;2023-01-28T10:37:54;5.50;99.90
51557;DHT22;38766;53.194;5.532;2023-01-28T10:40:24;5.50;99.90
51557;DHT22;38766;53.194;5.532;2023-01-28T10:42:50;5.40;99.90
51557;DHT22;38766;53.194;5.532;2023-01-28T10:45:31;5.40;99.90
51557;DHT22;38766;53.194;5.532;2023-01-28T10:48:22;5.40;99.90
51557;DHT22;38766;53.194;5.532;2023-01-28T10:50:53;5.30;99.90
51557;DHT22;38766;53.194;5.532;2023-01-28T10:53:53;5.30;99.90
51557;DHT22;38766;53.194;5.532;2023-01-28T10:56:31;5.20;99.90
51557;DHT22;38766;53.194;5.532;2023-01-28T11:04:18;5.10;99.90
51557;DHT22;38766;53.194;5.532;2023-01-28T11:07:05;5.10;99.90
51557;DHT22;38766;53.194;5.532;2023-01-28T11:09:35;5.10;99.90
51557;DHT22;38766;53.194;5.532;2023-01-28T11:12:12;5.10;99.90
51557;DHT22;38766;53.194;5.532;2023-01-28T11:14:52;5.10;99.90
51557;DHT22;38766;53.194;5.532;2023-01-28T11:17:19;5.10;99.90
51557;DHT22;38766;53.194;5.532;2023-01-28T11:19:47;5.10;99.90
51557;DHT22;38766;53.194;5.532;2023-01-28T11:24:46;5.00;99.90
51557;DHT22;38766;53.194;5.532;2023-01-28T11:27:15;5.00;99.90
51557;DHT22;38766;53.194;5.532;2023-01-28T11:29:42;5.00;99.90
51557;DHT22;38766;53.194;5.532;2023-01-28T11:32:19;5.00;99.90
51557;DHT22;38766;53.194;5.532;2023-01-28T11:34:52;5.00;99.90
51557;DHT22;38766;53.194;5.532;2023-01-28T11:37:20;5.20;99.90
51557;DHT22;38766;53.194;5.532;2023-01-28T11:39:47;5.40;99.90
51557;DHT22;38766;53.194;5.532;2023-01-28T11:42:17;5.70;99.90
51557;DHT22;38766;53.194;5.532;2023-01-28T11:44:44;5.90;99.90
51557;DHT22;38766;53.194;5.532;2023-01-28T11:53:26;6.60;99.90
51557;DHT22;38766;53.194;5.532;2023-01-28T11:59:25;6.70;99.90
51557;DHT22;38766;53.194;5.532;2023-01-28T12:08:01;6.50;99.90
51557;DHT22;38766;53.194;5.532;2023-01-28T12:10:51;6.40;99.90
51557;DHT22;38766;53.194;5.532;2023-01-28T12:16:13;6.20;99.90
51557;DHT22;38766;53.194;5.532;2023-01-28T12:19:10;6.20;99.90
51557;DHT22;38766;53.194;5.532;2023-01-28T12:24:54;6.10;99.90
51557;DHT22;38766;53.194;5.532;2023-01-28T12:30:05;6.20;99.90
51557;DHT22;38766;53.194;5.532;2023-01-28T12:32:57;6.30;99.90
51557;DHT22;38766;53.194;5.532;2023-01-28T12:40:54;6.30;99.90
51557;DHT22;38766;53.194;5.532;2023-01-28T12:43:42;6.30;99.90
51557;DHT22;38766;53.194;5.532;2023-01-28T12:46:32;6.30;99.90
51557;DHT22;38766;53.194;5.532;2023-01-28T12:49:06;6.30;99.90
51557;DHT22;38766;53.194;5.532;2023-01-28T12:54:51;6.20;99.90
51557;DHT22;38766;53.194;5.532;2023-01-28T12:57:26;6.20;99.90
51557;DHT22;38766;53.194;5.532;2023-01-28T13:02:46;6.20;99.90
51557;DHT22;38766;53.194;5.532;2023-01-28T13:05:16;6.20;99.90
51557;DHT22;38766;53.194;5.532;2023-01-28T13:07:55;6.20;99.90
51557;DHT22;38766;53.194;5.532;2023-01-28T13:10:28;6.20;99.90
51557;DHT22;38766;53.194;5.532;2023-01-28T13:12:54;6.20;99.90
51557;DHT22;38766;53.194;5.532;2023-01-28T13:15:24;6.20;99.90
51557;DHT22;38766;53.194;5.532;2023-01-28T13:17:59;6.20;99.90
51557;DHT22;38766;53.194;5.532;2023-01-28T13:20:50;6.20;99.90
51557;DHT22;38766;53.194;5.532;2023-01-28T13:23:25;6.10;99.90
51557;DHT22;38766;53.194;5.532;2023-01-28T13:25:54;6.10;99.90
51557;DHT22;38766;53.194;5.532;2023-01-28T13:28:29;6.10;99.90
51557;DHT22;38766;53.194;5.532;2023-01-28T13:31:08;6.00;99.90
51557;DHT22;38766;53.194;5.532;2023-01-28T13:33:40;6.00;99.90
51557;DHT22;38766;53.194;5.532;2023-01-28T13:36:26;6.00;99.90
51557;DHT22;38766;53.194;5.532;2023-01-28T13:39:04;6.00;99.90
51557;DHT22;38766;53.194;5.532;2023-01-28T13:41:39;5.90;99.90
51557;DHT22;38766;53.194;5.532;2023-01-28T13:44:17;6.00;99.90
51557;DHT22;38766;53.194;5.532;2023-01-28T13:46:43;6.00;99.90
51557;DHT22;38766;53.194;5.532;2023-01-28T13:49:17;6.00;99.90
51557;DHT22;38766;53.194;5.532;2023-01-28T13:51:58;6.00;99.90
51557;DHT22;38766;53.194;5.532;2023-01-28T13:54:29;6.00;99.90
51557;DHT22;38766;53.194;5.532;2023-01-28T13:57:13;6.00;99.90
51557;DHT22;38766;53.194;5.532;2023-01-28T13:59:59;6.00;99.90
51557;DHT22;38766;53.194;5.532;2023-01-28T14:05:34;6.10;99.90
51557;DHT22;38766;53.194;5.532;2023-01-28T14:08:30;6.10;99.90
51557;DHT22;38766;53.194;5.532;2023-01-28T14:19:21;6.10;99.90
51557;DHT22;38766;53.194;5.532;2023-01-28T14:21:50;6.10;99.90
51557;DHT22;38766;53.194;5.532;2023-01-28T14:24:20;6.10;99.90
51557;DHT22;38766;53.194;5.532;2023-01-28T14:32:18;6.10;99.90
51557;DHT22;38766;53.194;5.532;2023-01-28T14:34:44;6.20;99.90
51557;DHT22;38766;53.194;5.532;2023-01-28T14:37:23;6.10;99.90
51557;DHT22;38766;53.194;5.532;2023-01-28T14:40:01;6.10;99.90
51557;DHT22;38766;53.194;5.532;2023-01-28T14:42:39;6.10;99.90
51557;DHT22;38766;53.194;5.532;2023-01-28T14:48:20;6.10;99.90
51557;DHT22;38766;53.194;5.532;2023-01-28T15:02:21;6.10;99.90
51557;DHT22;38766;53.194;5.532;2023-01-28T15:04:48;6.10;99.90
51557;DHT22;38766;53.194;5.532;2023-01-28T15:07:19;6.10;99.90
51557;DHT22;38766;53.194;5.532;2023-01-28T15:09:46;6.10;99.90
51557;DHT22;38766;53.194;5.532;2023-01-28T15:12:13;6.10;99.90
51557;DHT22;38766;53.194;5.532;2023-01-28T15:14:40;6.10;99.90
51557;DHT22;38766;53.194;5.532;2023-01-28T15:17:20;6.10;99.90
51557;DHT22;38766;53.194;5.532;2023-01-28T15:19:47;6.10;99.90
51557;DHT22;38766;53.194;5.532;2023-01-28T15:22:14;6.10;99.90
51557;DHT22;38766;53.194;5.532;2023-01-28T15:24:41;6.10;99.90
51557;DHT22;38766;53.194;5.532;2023-01-28T15:27:16;6.10;99.90
51557;DHT22;38766;53.194;5.532;2023-01-28T15:29:51;6.10;99.90
51557;DHT22;38766;53.194;5.532;2023-01-28T15:32:24;6.10;99.90
51557;DHT22;38766;53.194;5.532;2023-01-28T15:34:51;6.10;99.90
51557;DHT22;38766;53.194;5.532;2023-01-28T15:37:17;6.00;99.90
51557;DHT22;38766;53.194;5.532;2023-01-28T15:39:43;6.00;99.90
51557;DHT22;38766;53.194;5.532;2023-01-28T15:42:24;6.00;99.90
51557;DHT22;38766;53.194;5.532;2023-01-28T15:44:54;6.00;99.90
51557;DHT22;38766;53.194;5.532;2023-01-28T15:47:30;5.90;99.90
51557;DHT22;38766;53.194;5.532;2023-01-28T15:50:06;5.90;99.90
51557;DHT22;38766;53.194;5.532;2023-01-28T15:52:35;5.90;99.90
51557;DHT22;38766;53.194;5.532;2023-01-28T15:55:03;5.90;99.90
51557;DHT22;38766;53.194;5.532;2023-01-28T15:57:31;5.90;99.90
51557;DHT22;38766;53.194;5.532;2023-01-28T16:02:31;5.90;99.90
51557;DHT22;38766;53.194;5.532;2023-01-28T16:04:59;5.80;99.90
51557;DHT22;38766;53.194;5.532;2023-01-28T16:07:27;5.80;99.90
51557;DHT22;38766;53.194;5.532;2023-01-28T16:09:55;5.80;99.90
51557;DHT22;38766;53.194;5.532;2023-01-28T16:12:22;5.80;99.90
51557;DHT22;38766;53.194;5.532;2023-01-28T16:14:56;5.80;99.90
51557;DHT22;38766;53.194;5.532;2023-01-28T16:17:29;5.80;99.90
51557;DHT22;38766;53.194;5.532;2023-01-28T16:20:02;5.70;99.90
51557;DHT22;38766;53.194;5.532;2023-01-28T16:22:37;5.70;99.90
51557;DHT22;38766;53.194;5.532;2023-01-28T16:25:29;5.70;99.90
51557;DHT22;38766;53.194;5.532;2023-01-28T16:27:59;5.60;99.90
51557;DHT22;38766;53.194;5.532;2023-01-28T16:30:26;5.60;99.90
51557;DHT22;38766;53.194;5.532;2023-01-28T16:32:52;5.60;99.90
51557;DHT22;38766;53.194;5.532;2023-01-28T16:35:26;5.60;99.90
51557;DHT22;38766;53.194;5.532;2023-01-28T16:37:52;5.60;99.90
51557;DHT22;38766;53.194;5.532;2023-01-28T16:40:20;5.60;99.90
51557;DHT22;38766;53.194;5.532;2023-01-28T16:42:46;5.60;99.90
51557;DHT22;38766;53.194;5.532;2023-01-28T16:45:20;5.60;99.90
51557;DHT22;38766;53.194;5.532;2023-01-28T16:47:46;5.60;99.90
51557;DHT22;38766;53.194;5.532;2023-01-28T16:50:13;5.60;99.90
51557;DHT22;38766;53.194;5.532;2023-01-28T16:52:40;5.60;99.90
51557;DHT22;38766;53.194;5.532;2023-01-28T16:55:16;5.50;99.90
51557;DHT22;38766;53.194;5.532;2023-01-28T16:57:43;5.60;99.90
51557;DHT22;38766;53.194;5.532;2023-01-28T17:00:18;5.60;99.90
51557;DHT22;38766;53.194;5.532;2023-01-28T17:02:45;5.60;99.90
51557;DHT22;38766;53.194;5.532;2023-01-28T17:05:11;5.60;99.90
51557;DHT22;38766;53.194;5.532;2023-01-28T17:07:37;5.60;99.90
51557;DHT22;38766;53.194;5.532;2023-01-28T17:10:03;5.50;99.90
51557;DHT22;38766;53.194;5.532;2023-01-28T17:12:29;5.60;99.90
51557;DHT22;38766;53.194;5.532;2023-01-28T17:14:55;5.60;99.90
51557;DHT22;38766;53.194;5.532;2023-01-28T17:17:20;5.60;99.90
51557;DHT22;38766;53.194;5.532;2023-01-28T17:19:46;5.60;99.90
51557;DHT22;38766;53.194;5.532;2023-01-28T17:22:11;5.60;99.90
51557;DHT22;38766;53.194;5.532;2023-01-28T17:24:37;5.60;99.90
51557;DHT22;38766;53.194;5.532;2023-01-28T17:27:03;5.60;99.90
51557;DHT22;38766;53.194;5.532;2023-01-28T17:29:30;5.60;99.90
51557;DHT22;38766;53.194;5.532;2023-01-28T17:31:55;5.60;99.90
51557;DHT22;38766;53.194;5.532;2023-01-28T17:34:21;5.60;99.90
51557;DHT22;38766;53.194;5.532;2023-01-28T17:36:46;5.60;99.90
51557;DHT22;38766;53.194;5.532;2023-01-28T17:39:12;5.60;99.90
51557;DHT22;38766;53.194;5.532;2023-01-28T17:41:38;5.60;99.90
51557;DHT22;38766;53.194;5.532;2023-01-28T17:44:04;5.60;99.90
51557;DHT22;38766;53.194;5.532;2023-01-28T17:46:30;5.60;99.90
51557;DHT22;38766;53.194;5.532;2023-01-28T17:48:55;5.60;99.90
51557;DHT22;38766;53.194;5.532;2023-01-28T17:51:24;5.60;99.90
51557;DHT22;38766;53.194;5.532;2023-01-28T17:53:51;5.60;99.90
51557;DHT22;38766;53.194;5.532;2023-01-28T17:56:23;5.60;99.90